Time;durP1;ratioP1;P1;durP2;ratioP2;P2;SDS_P1;SDS_P2;PMS_P1;PMS_P2;Temp;Humidity;BMP_temperature;BMP_pressure;BME280_temperature;BME280_humidity;BME280_pressure;Samples;Min_cycle;Max_cycle;Signal;HPM_P1;HPM_P2
2023/03/06 00:01:05;;;;;;;1.10;0.30;;;0.90;99.90;;;;;;6260745;23;20050;-89
2023/03/06 00:03:34;;;;;;;0.30;0.28;;;1.60;99.90;;;;;;6259171;23;20016;-90
2023/03/06 00:06:00;;;;;;;0.95;0.30;;;1.00;99.90;;;;;;6245013;22;20115;-91
2023/03/06 00:08:27;;;;;;;0.68;0.25;;;2.40;99.90;;;;;;6244555;23;20066;-93
2023/03/06 00:10:56;;;;;;;0.20;0.20;;;1.50;99.90;;;;;;6244186;23;20031;-93
2023/03/06 00:13:23;;;;;;;0.22;0.20;;;2.20;99.90;;;;;;6244252;23;20023;-94
2023/03/06 00:15:49;;;;;;;1.65;0.20;;;0.90;99.90;;;;;;6244047;22;20012;-93
2023/03/06 00:18:15;;;;;;;0.50;0.20;;;1.50;99.90;;;;;;6248699;22;20450;-84
2023/03/06 00:20:42;;;;;;;0.25;0.20;;;2.70;99.90;;;;;;6253596;22;20058;-83
2023/03/06 00:23:12;;;;;;;0.43;0.20;;;2.60;99.90;;;;;;6256296;23;20024;-88
2023/03/06 00:25:42;;;;;;;1.30;0.20;;;1.50;99.90;;;;;;6261736;23;20098;-91
2023/03/06 00:28:13;;;;;;;1.65;0.30;;;0.40;99.90;;;;;;6265051;22;20078;-95
2023/03/06 00:30:42;;;;;;;0.75;0.20;;;3.20;99.90;;;;;;6217246;23;20080;-90
2023/03/06 00:33:09;;;;;;;0.77;0.30;;;1.60;99.90;;;;;;6269216;23;20004;-90
2023/03/06 00:35:38;;;;;;;0.30;0.20;;;1.50;99.90;;;;;;6291568;22;20015;-85
2023/03/06 00:38:04;;;;;;;0.25;0.25;;;2.10;99.90;;;;;;6303155;22;20024;-89
2023/03/06 00:40:30;;;;;;;0.25;0.20;;;1.30;99.90;;;;;;6301330;22;20020;-89
2023/03/06 00:42:56;;;;;;;1.48;0.30;;;1.50;99.90;;;;;;6301327;22;20023;-94
2023/03/06 00:45:21;;;;;;;0.40;0.20;;;0.80;99.90;;;;;;6301437;22;20036;-87
2023/03/06 00:47:47;;;;;;;0.35;0.20;;;1.60;99.90;;;;;;6300479;22;20016;-85
2023/03/06 00:50:21;;;;;;;0.63;0.30;;;3.30;99.90;;;;;;6301551;22;20016;-84
2023/03/06 00:52:46;;;;;;;0.20;0.20;;;1.60;99.90;;;;;;6297480;22;20397;-84
2023/03/06 00:55:12;;;;;;;0.25;0.25;;;2.60;99.90;;;;;;6301126;22;20027;-83
2023/03/06 00:57:45;;;;;;;0.68;0.28;;;1.20;99.90;;;;;;6299500;22;20016;-83
2023/03/06 01:00:12;;;;;;;0.20;0.20;;;2.60;99.90;;;;;;6297593;22;20039;-87
2023/03/06 01:02:39;;;;;;;0.20;0.20;;;1.70;99.90;;;;;;6297179;22;20015;-89
2023/03/06 01:05:08;;;;;;;0.93;0.30;;;1.80;99.90;;;;;;6297064;22;20077;-85
2023/03/06 01:07:54;;;;;;;0.47;0.30;;;1.90;99.90;;;;;;6294270;22;20339;-86
2023/03/06 01:10:31;;;;;;;1.77;0.30;;;2.30;99.90;;;;;;6234677;23;20021;-83
2023/03/06 01:12:58;;;;;;;0.50;0.30;;;1.90;99.90;;;;;;6230696;23;20240;-90
2023/03/06 01:15:24;;;;;;;0.30;0.30;;;1.20;99.90;;;;;;6201309;23;20023;-89
2023/03/06 01:17:53;;;;;;;0.40;0.40;;;1.80;99.90;;;;;;6226490;23;20352;-92
2023/03/06 01:24:33;;;;;;;1.58;0.30;;;1.60;99.90;;;;;;6220043;23;20474;-90
2023/03/06 01:26:59;;;;;;;0.52;0.30;;;1.60;99.90;;;;;;6218798;23;20021;-95
2023/03/06 01:29:25;;;;;;;2.05;0.28;;;2.00;99.90;;;;;;6224037;23;20017;-87
2023/03/06 01:31:51;;;;;;;0.35;0.30;;;1.50;99.90;;;;;;6174019;23;20086;-92
2023/03/06 01:34:17;;;;;;;0.35;0.35;;;2.50;99.90;;;;;;6223840;23;20017;-91
2023/03/06 01:36:44;;;;;;;0.20;0.20;;;1.40;99.90;;;;;;6224055;23;20085;-92
2023/03/06 01:39:10;;;;;;;0.52;0.20;;;1.20;99.90;;;;;;6197096;23;20055;-93
2023/03/06 01:41:36;;;;;;;0.65;0.30;;;0.30;99.90;;;;;;6260159;22;20020;-91
2023/03/06 01:44:02;;;;;;;0.20;0.20;;;1.80;99.90;;;;;;6283572;22;20026;-93
2023/03/06 01:46:30;;;;;;;0.20;0.20;;;1.20;99.90;;;;;;6283137;22;20022;-89
2023/03/06 01:48:57;;;;;;;1.15;0.20;;;1.60;99.90;;;;;;6292371;22;20039;-88
2023/03/06 01:55:24;;;;;;;0.28;0.28;;;1.20;99.90;;;;;;6291865;22;20014;-93
2023/03/06 01:57:53;;;;;;;2.17;0.30;;;2.00;99.90;;;;;;6289514;22;20026;-87
2023/03/06 02:00:24;;;;;;;0.30;0.20;;;1.90;99.90;;;;;;6290338;22;20019;-93
2023/03/06 02:02:57;;;;;;;1.38;0.20;;;1.10;99.90;;;;;;6295800;22;20027;-93
2023/03/06 02:09:41;;;;;;;1.25;0.28;;;1.20;99.90;;;;;;6290037;22;20034;-93
2023/03/06 02:12:15;;;;;;;0.20;0.20;;;1.10;99.90;;;;;;6286078;22;20347;-93
2023/03/06 02:14:42;;;;;;;0.22;0.20;;;1.10;99.90;;;;;;6285421;22;20011;-91
2023/03/06 02:17:09;;;;;;;0.22;0.20;;;1.30;99.90;;;;;;6283467;22;20041;-94
2023/03/06 02:20:01;;;;;;;0.10;0.10;;;1.50;99.90;;;;;;6282584;22;20031;-92
2023/03/06 02:23:13;;;;;;;0.20;0.20;;;1.10;99.90;;;;;;6298889;22;20003;-85
2023/03/06 02:25:50;;;;;;;0.20;0.20;;;1.10;99.90;;;;;;6089989;23;20026;-88
2023/03/06 02:28:20;;;;;;;0.80;0.20;;;1.60;99.90;;;;;;6064660;23;20022;-93
2023/03/06 02:31:01;;;;;;;0.20;0.20;;;1.10;99.90;;;;;;6031662;23;20055;-87
2023/03/06 02:33:33;;;;;;;1.30;0.20;;;1.10;99.90;;;;;;6008498;23;20374;-91
2023/03/06 02:39:48;;;;;;;0.45;0.20;;;1.10;99.90;;;;;;6028917;23;20058;-89
2023/03/06 02:42:27;;;;;;;0.20;0.20;;;1.10;99.90;;;;;;6031485;23;20020;-83
2023/03/06 02:44:56;;;;;;;0.10;0.10;;;0.30;99.90;;;;;;6006724;23;20027;-86
2023/03/06 02:47:22;;;;;;;0.20;0.20;;;1.10;99.90;;;;;;6029840;23;20026;-85
2023/03/06 02:49:49;;;;;;;0.75;0.28;;;1.10;99.90;;;;;;6030298;23;20020;-87
2023/03/06 02:52:19;;;;;;;0.10;0.10;;;1.40;99.90;;;;;;6029964;23;20007;-93
2023/03/06 02:54:45;;;;;;;0.20;0.20;;;1.10;99.90;;;;;;5983942;23;20004;-85
2023/03/06 02:57:13;;;;;;;0.15;0.15;;;1.70;99.90;;;;;;6030976;23;20019;-90
2023/03/06 02:59:41;;;;;;;0.20;0.20;;;2.20;99.90;;;;;;6027750;23;20023;-90
2023/03/06 03:02:06;;;;;;;0.15;0.15;;;1.10;99.90;;;;;;6148552;22;20007;-87
2023/03/06 03:04:38;;;;;;;0.20;0.20;;;2.10;99.90;;;;;;6297220;22;20016;-87
2023/03/06 03:07:05;;;;;;;0.20;0.20;;;1.10;99.90;;;;;;6296946;22;20015;-88
2023/03/06 03:09:35;;;;;;;0.50;0.20;;;1.20;99.90;;;;;;6272155;22;20016;-86
2023/03/06 03:12:03;;;;;;;1.35;0.25;;;1.20;99.90;;;;;;6294845;22;20047;-87
2023/03/06 03:14:29;;;;;;;4.35;0.30;;;1.20;99.90;;;;;;6293894;22;20043;-90
2023/03/06 03:16:59;;;;;;;0.20;0.20;;;1.10;99.90;;;;;;6293780;22;20044;-89
2023/03/06 03:19:25;;;;;;;0.17;0.17;;;2.40;99.90;;;;;;6291616;22;20041;-92
2023/03/06 03:25:33;;;;;;;0.20;0.20;;;1.20;99.90;;;;;;6288629;22;20014;-87
2023/03/06 03:27:59;;;;;;;0.20;0.20;;;1.10;99.90;;;;;;6284458;22;20016;-84
2023/03/06 03:30:24;;;;;;;0.10;0.10;;;1.20;99.90;;;;;;6283211;22;20015;-89
2023/03/06 03:32:50;;;;;;;0.20;0.20;;;1.10;99.90;;;;;;6284479;22;20288;-93
2023/03/06 03:35:16;;;;;;;0.32;0.20;;;1.30;99.90;;;;;;6287873;22;20012;-86
2023/03/06 03:37:41;;;;;;;0.20;0.20;;;1.20;99.90;;;;;;6286012;22;20037;-91
2023/03/06 03:40:09;;;;;;;0.20;0.20;;;1.10;99.90;;;;;;6287438;22;20019;-87
2023/03/06 03:42:35;;;;;;;0.20;0.20;;;1.10;99.90;;;;;;6288100;22;20315;-91
2023/03/06 03:45:02;;;;;;;0.32;0.20;;;1.10;99.90;;;;;;6289622;22;20062;-92
2023/03/06 03:47:28;;;;;;;0.20;0.20;;;1.10;99.90;;;;;;6289496;22;20049;-89
2023/03/06 03:49:54;;;;;;;0.20;0.20;;;0.90;99.90;;;;;;6288722;22;20020;-89
2023/03/06 03:52:19;;;;;;;0.75;0.20;;;1.00;99.90;;;;;;6292632;22;20012;-91
2023/03/06 03:54:45;;;;;;;0.43;0.28;;;1.50;99.90;;;;;;6291915;22;20485;-82
2023/03/06 03:57:11;;;;;;;0.50;0.20;;;1.80;99.90;;;;;;6291000;22;20022;-92
2023/03/06 03:59:38;;;;;;;0.65;0.20;;;0.90;99.90;;;;;;6292267;22;20039;-92
2023/03/06 04:02:04;;;;;;;0.22;0.22;;;1.10;99.90;;;;;;6293891;22;20081;-87
2023/03/06 04:04:30;;;;;;;0.30;0.30;;;0.90;99.90;;;;;;6295274;22;20011;-84
2023/03/06 04:06:56;;;;;;;0.20;0.20;;;0.90;99.90;;;;;;6300241;22;20020;-90
2023/03/06 04:09:37;;;;;;;0.20;0.20;;;0.80;99.90;;;;;;6300736;22;20035;-91
2023/03/06 04:12:03;;;;;;;0.40;0.25;;;0.80;99.90;;;;;;6301452;22;20052;-89
2023/03/06 04:14:29;;;;;;;0.70;0.30;;;0.90;99.90;;;;;;6272969;22;20016;-88
2023/03/06 04:16:58;;;;;;;0.93;0.32;;;2.00;99.90;;;;;;6298950;22;20094;-90
2023/03/06 04:19:23;;;;;;;0.30;0.22;;;0.80;99.90;;;;;;6300309;22;20020;-93
2023/03/06 04:25:30;;;;;;;0.30;0.30;;;0.80;99.90;;;;;;6300323;22;20014;-87
2023/03/06 04:27:57;;;;;;;0.40;0.38;;;0.80;99.90;;;;;;6300033;22;20020;-88
2023/03/06 04:30:23;;;;;;;0.32;0.30;;;0.90;99.90;;;;;;6298411;22;20035;-91
2023/03/06 04:32:56;;;;;;;0.40;0.30;;;0.80;99.90;;;;;;6302001;22;20004;-90
2023/03/06 04:35:23;;;;;;;0.35;0.30;;;2.20;99.90;;;;;;6300108;22;20019;-86
2023/03/06 04:41:31;;;;;;;0.50;0.30;;;0.90;99.90;;;;;;6302534;22;20023;-86
2023/03/06 04:43:57;;;;;;;1.73;0.60;;;0.60;99.90;;;;;;6299486;22;20079;-88
2023/03/06 04:46:23;;;;;;;0.90;0.43;;;1.70;99.90;;;;;;6291245;22;20011;-92
2023/03/06 04:48:48;;;;;;;0.80;0.50;;;2.10;99.90;;;;;;6280275;22;20095;-91
2023/03/06 04:51:14;;;;;;;0.60;0.40;;;0.40;99.90;;;;;;6278630;22;20031;-92
2023/03/06 04:53:40;;;;;;;0.77;0.40;;;1.70;99.90;;;;;;6277931;22;20098;-91
2023/03/06 04:56:06;;;;;;;2.78;0.40;;;0.80;99.90;;;;;;6277708;22;20342;-89
2023/03/06 04:58:32;;;;;;;0.63;0.40;;;0.80;99.90;;;;;;6277658;22;20016;-91
2023/03/06 05:00:57;;;;;;;0.80;0.43;;;0.80;99.90;;;;;;6276156;22;20070;-89
2023/03/06 05:03:23;;;;;;;1.02;0.50;;;0.10;99.90;;;;;;6277305;22;20058;-91
2023/03/06 05:05:49;;;;;;;0.73;0.35;;;1.40;99.90;;;;;;6277860;22;20064;-89
2023/03/06 05:08:16;;;;;;;0.22;0.22;;;1.70;99.90;;;;;;6276925;22;20016;-90
2023/03/06 05:10:43;;;;;;;1.23;0.50;;;0.10;99.90;;;;;;6277278;22;20066;-91
2023/03/06 05:13:09;;;;;;;0.52;0.40;;;2.00;99.90;;;;;;6277865;22;20065;-91
2023/03/06 05:15:34;;;;;;;0.70;0.30;;;0.80;99.90;;;;;;6277201;22;20393;-89
2023/03/06 05:18:00;;;;;;;1.95;0.40;;;1.60;99.90;;;;;;6277614;22;20012;-90
2023/03/06 05:20:27;;;;;;;0.50;0.30;;;0.70;99.90;;;;;;6276243;22;20024;-90
2023/03/06 05:22:53;;;;;;;0.75;0.30;;;2.20;99.90;;;;;;6277161;22;20024;-91
2023/03/06 05:25:19;;;;;;;0.75;0.35;;;0.80;99.90;;;;;;6277684;22;20012;-92
2023/03/06 05:27:45;;;;;;;0.70;0.38;;;1.30;99.90;;;;;;6277187;22;20389;-91
2023/03/06 05:30:13;;;;;;;0.95;0.40;;;0.40;99.90;;;;;;6277245;22;20058;-92
2023/03/06 05:32:39;;;;;;;0.45;0.30;;;0.90;99.90;;;;;;6276837;22;20008;-88
2023/03/06 05:35:05;;;;;;;1.23;0.45;;;2.00;99.90;;;;;;6276823;22;20062;-89
2023/03/06 05:37:32;;;;;;;1.13;0.50;;;0.80;99.90;;;;;;6276807;22;20012;-89
2023/03/06 05:39:58;;;;;;;1.50;0.50;;;0.80;99.90;;;;;;6276783;22;20016;-91
2023/03/06 05:42:23;;;;;;;0.60;0.30;;;0.10;99.90;;;;;;6277037;22;20087;-90
2023/03/06 05:44:49;;;;;;;0.50;0.30;;;0.70;99.90;;;;;;6276731;22;20389;-92
2023/03/06 05:47:15;;;;;;;0.82;0.40;;;0.80;99.90;;;;;;6277154;22;20015;-90
2023/03/06 05:49:40;;;;;;;2.00;0.40;;;1.70;99.90;;;;;;6275426;22;20027;-91
2023/03/06 05:52:07;;;;;;;1.02;0.50;;;0.70;99.90;;;;;;6276381;22;20077;-91
2023/03/06 05:54:35;;;;;;;1.05;0.40;;;0.80;99.90;;;;;;6279655;22;20046;-86
2023/03/06 05:57:01;;;;;;;0.40;0.20;;;0.90;99.90;;;;;;6288447;22;20015;-91
2023/03/06 05:59:27;;;;;;;1.00;0.45;;;0.70;99.90;;;;;;6296386;22;20024;-86
2023/03/06 06:02:04;;;;;;;0.38;0.30;;;0.90;99.90;;;;;;6298650;22;20042;-91
2023/03/06 06:04:30;;;;;;;0.50;0.43;;;0.90;99.90;;;;;;6285088;22;20035;-92
2023/03/06 06:06:59;;;;;;;1.00;0.40;;;0.10;99.90;;;;;;6279090;22;20026;-91
2023/03/06 06:09:25;;;;;;;0.80;0.40;;;0.70;99.90;;;;;;6277723;22;20042;-90
2023/03/06 06:11:58;;;;;;;1.05;0.47;;;1.10;99.90;;;;;;6280510;22;20043;-90
2023/03/06 06:14:24;;;;;;;0.80;0.40;;;1.30;99.90;;;;;;6282327;22;20023;-91
2023/03/06 06:16:50;;;;;;;0.50;0.40;;;1.60;99.90;;;;;;6286097;22;20046;-91
2023/03/06 06:19:19;;;;;;;0.90;0.43;;;0.60;99.90;;;;;;6286734;22;20090;-91
2023/03/06 06:21:47;;;;;;;0.75;0.40;;;0.50;99.90;;;;;;6290597;22;20026;-87
2023/03/06 06:24:15;;;;;;;2.22;0.50;;;0.60;99.90;;;;;;6291968;22;20062;-91
2023/03/06 06:26:42;;;;;;;3.10;0.68;;;-0.10;99.90;;;;;;6295064;22;20456;-88
2023/03/06 06:29:08;;;;;;;1.85;1.02;;;0.50;99.90;;;;;;6294480;22;20473;-92
2023/03/06 06:31:35;;;;;;;0.77;0.50;;;2.10;99.90;;;;;;6293560;22;20026;-90
2023/03/06 06:34:06;;;;;;;0.50;0.30;;;1.40;99.90;;;;;;6293620;22;20024;-92
2023/03/06 06:36:33;;;;;;;1.20;0.50;;;0.00;99.90;;;;;;6291981;22;20063;-89
2023/03/06 06:38:58;;;;;;;1.10;0.55;;;1.80;99.90;;;;;;6299511;22;20145;-92
2023/03/06 06:41:26;;;;;;;0.95;0.40;;;0.50;99.90;;;;;;6298981;22;20024;-90
2023/03/06 06:43:53;;;;;;;1.05;0.60;;;0.10;99.90;;;;;;6299442;22;20098;-90
2023/03/06 06:46:19;;;;;;;1.58;0.55;;;0.70;99.90;;;;;;6298812;22;20027;-89
2023/03/06 06:48:48;;;;;;;1.52;0.55;;;0.40;99.90;;;;;;6298871;22;20043;-84
2023/03/06 06:51:14;;;;;;;0.68;0.50;;;0.40;99.90;;;;;;6298988;22;20024;-87
2023/03/06 06:53:43;;;;;;;0.90;0.52;;;1.20;99.90;;;;;;6300065;22;20016;-91
2023/03/06 06:56:21;;;;;;;1.15;0.60;;;1.30;99.90;;;;;;6298533;22;20655;-86
2023/03/06 06:58:58;;;;;;;0.77;0.60;;;0.80;99.90;;;;;;6297657;22;20068;-89
2023/03/06 07:01:24;;;;;;;1.10;0.82;;;0.30;99.90;;;;;;6295330;22;20054;-90
2023/03/06 07:03:50;;;;;;;0.90;0.50;;;0.40;99.90;;;;;;6267525;22;20145;-90
2023/03/06 07:06:16;;;;;;;1.58;0.60;;;0.70;99.90;;;;;;6291928;22;20015;-91
2023/03/06 07:08:42;;;;;;;0.90;0.55;;;0.30;99.90;;;;;;6291741;22;20434;-92
2023/03/06 07:11:17;;;;;;;1.00;0.60;;;0.40;99.90;;;;;;6283693;22;20470;-92
2023/03/06 07:13:44;;;;;;;0.98;0.60;;;1.10;99.90;;;;;;6281639;22;20150;-90
2023/03/06 07:16:10;;;;;;;1.10;0.50;;;-0.30;99.90;;;;;;6280281;22;20073;-91
2023/03/06 07:18:35;;;;;;;0.65;0.60;;;0.40;99.90;;;;;;6278846;22;20024;-91
2023/03/06 07:21:01;;;;;;;1.13;0.82;;;0.70;99.90;;;;;;6276148;22;20458;-91
2023/03/06 07:23:27;;;;;;;1.50;0.70;;;-0.10;99.90;;;;;;6276746;22;20026;-87
2023/03/06 07:25:54;;;;;;;1.33;0.75;;;0.90;99.90;;;;;;6276428;22;20023;-92
2023/03/06 07:28:20;;;;;;;1.38;0.60;;;0.50;99.90;;;;;;6294343;22;20018;-92
2023/03/06 07:30:53;;;;;;;0.47;0.43;;;1.90;99.90;;;;;;6269304;22;20101;-89
2023/03/06 07:33:19;;;;;;;1.15;0.70;;;0.60;99.90;;;;;;6298631;22;20050;-92
2023/03/06 07:35:45;;;;;;;0.93;0.60;;;2.30;99.90;;;;;;6292622;22;20392;-91
2023/03/06 07:41:52;;;;;;;0.68;0.50;;;0.70;99.90;;;;;;6288166;22;20010;-93
2023/03/06 07:44:21;;;;;;;1.42;0.52;;;0.80;99.90;;;;;;6296492;22;20027;-93
2023/03/06 07:46:46;;;;;;;0.73;0.52;;;1.00;99.90;;;;;;6287456;22;20019;-93
2023/03/06 07:49:12;;;;;;;0.95;0.60;;;1.50;99.90;;;;;;6275421;22;20020;-86
2023/03/06 07:51:38;;;;;;;0.82;0.60;;;1.00;99.90;;;;;;6274163;22;20064;-86
2023/03/06 07:54:04;;;;;;;1.05;0.63;;;2.30;99.90;;;;;;6276288;22;20023;-88
2023/03/06 07:56:29;;;;;;;0.98;0.52;;;1.50;99.90;;;;;;6248687;22;20382;-87
2023/03/06 07:58:55;;;;;;;1.00;0.47;;;0.90;99.90;;;;;;6274439;22;20086;-87
2023/03/06 08:01:22;;;;;;;0.85;0.40;;;2.50;99.90;;;;;;6274954;22;20012;-85
2023/03/06 08:03:49;;;;;;;0.68;0.50;;;2.40;99.90;;;;;;6274417;22;20027;-87
2023/03/06 08:13:19;;;;;;;1.80;0.52;;;1.70;99.90;;;;;;6275221;22;20499;-86
2023/03/06 08:15:48;;;;;;;1.90;0.70;;;2.10;99.90;;;;;;6273820;22;20102;-84
2023/03/06 08:18:14;;;;;;;0.40;0.30;;;1.60;99.90;;;;;;6273747;22;20481;-84
2023/03/06 08:20:39;;;;;;;0.73;0.40;;;2.90;99.90;;;;;;6273811;22;20477;-88
2023/03/06 08:23:08;;;;;;;0.65;0.40;;;1.50;99.90;;;;;;6275591;22;20016;-85
2023/03/06 08:25:34;;;;;;;1.05;0.52;;;1.50;99.90;;;;;;6273701;22;20023;-84
2023/03/06 08:28:07;;;;;;;0.63;0.40;;;2.10;99.90;;;;;;6276913;22;20092;-87
2023/03/06 08:30:42;;;;;;;0.45;0.40;;;1.40;99.90;;;;;;6275043;22;20011;-87
2023/03/06 08:33:08;;;;;;;0.90;0.55;;;2.20;99.90;;;;;;6275598;22;20511;-90
2023/03/06 08:35:33;;;;;;;1.23;0.50;;;1.50;99.90;;;;;;6274885;22;20099;-90
2023/03/06 08:37:59;;;;;;;0.77;0.40;;;1.90;99.90;;;;;;6276478;22;20016;-91
2023/03/06 08:40:29;;;;;;;1.08;0.40;;;2.20;99.90;;;;;;6276519;22;20371;-88
2023/03/06 08:42:54;;;;;;;0.40;0.30;;;2.20;99.90;;;;;;6275146;22;20022;-91
2023/03/06 08:45:20;;;;;;;0.52;0.50;;;2.30;99.90;;;;;;6276334;22;20047;-91
2023/03/06 08:47:46;;;;;;;0.32;0.22;;;2.60;99.90;;;;;;6250952;22;20446;-91
2023/03/06 08:50:12;;;;;;;0.82;0.47;;;2.50;99.90;;;;;;6278219;22;20013;-92
2023/03/06 08:52:38;;;;;;;2.40;0.50;;;2.80;99.90;;;;;;6277610;22;20020;-92
2023/03/06 08:55:04;;;;;;;0.30;0.30;;;3.70;99.90;;;;;;6276267;22;20035;-88
2023/03/06 08:57:30;;;;;;;0.30;0.30;;;2.80;99.90;;;;;;6278332;22;20038;-91
2023/03/06 08:59:56;;;;;;;0.30;0.30;;;2.00;99.90;;;;;;6277634;22;20019;-91
2023/03/06 09:02:22;;;;;;;1.90;0.30;;;3.00;99.90;;;;;;6278085;22;20014;-92
2023/03/06 09:04:47;;;;;;;0.30;0.30;;;3.10;99.90;;;;;;6276465;22;20018;-91
2023/03/06 09:07:13;;;;;;;0.95;0.45;;;3.60;99.90;;;;;;6276470;22;20035;-91
2023/03/06 09:09:39;;;;;;;3.13;0.50;;;3.50;99.90;;;;;;6277737;22;20023;-91
2023/03/06 09:12:05;;;;;;;0.82;0.50;;;3.40;99.90;;;;;;6277296;22;20012;-90
2023/03/06 09:14:31;;;;;;;1.73;0.35;;;3.40;99.90;;;;;;6276254;22;20011;-91
2023/03/06 09:16:57;;;;;;;2.45;0.30;;;3.70;99.90;;;;;;6275704;22;20077;-91
2023/03/06 09:19:22;;;;;;;1.23;0.40;;;3.60;99.90;;;;;;6277270;22;20046;-92
2023/03/06 09:21:48;;;;;;;1.67;0.50;;;4.10;99.90;;;;;;6250694;22;20071;-92
2023/03/06 09:24:14;;;;;;;3.22;0.70;;;3.10;99.90;;;;;;6277370;22;20026;-88
2023/03/06 09:26:40;;;;;;;1.60;0.50;;;5.00;99.90;;;;;;6277583;22;20022;-92
2023/03/06 09:29:06;;;;;;;2.00;0.40;;;4.00;99.90;;;;;;6275731;22;20418;-92
2023/03/06 09:31:32;;;;;;;1.08;0.30;;;4.10;99.90;;;;;;6277746;22;20389;-89
2023/03/06 09:33:57;;;;;;;0.60;0.30;;;3.70;99.90;;;;;;6250362;22;20062;-91
2023/03/06 09:36:23;;;;;;;0.32;0.20;;;4.10;99.90;;;;;;6276008;22;20546;-92
2023/03/06 09:38:49;;;;;;;0.95;0.32;;;4.30;99.90;;;;;;6275607;22;20023;-92
2023/03/06 09:41:32;;;;;;;1.08;0.30;;;4.40;99.90;;;;;;6277479;22;20100;-92
2023/03/06 09:44:13;;;;;;;1.17;0.40;;;4.50;99.90;;;;;;6275699;22;20011;-91
2023/03/06 09:47:05;;;;;;;0.20;0.15;;;5.60;99.90;;;;;;6276064;22;20024;-91
2023/03/06 09:49:43;;;;;;;1.20;0.20;;;4.60;99.90;;;;;;6276550;22;20028;-89
2023/03/06 09:52:18;;;;;;;1.08;0.35;;;5.30;99.90;;;;;;6277582;22;20043;-93
2023/03/06 09:54:55;;;;;;;1.75;0.30;;;4.70;99.90;;;;;;6277720;22;20019;-92
2023/03/06 09:57:35;;;;;;;0.95;0.30;;;4.80;99.90;;;;;;6275684;22;20016;-91
2023/03/06 10:00:19;;;;;;;0.80;0.28;;;4.90;99.90;;;;;;6277234;22;20019;-92
2023/03/06 10:02:55;;;;;;;1.08;0.20;;;4.90;99.90;;;;;;6276267;22;20023;-92
2023/03/06 10:05:42;;;;;;;1.73;0.30;;;5.00;99.90;;;;;;6277099;22;20058;-90
2023/03/06 10:08:31;;;;;;;0.40;0.30;;;5.00;99.90;;;;;;6277150;22;20091;-92
2023/03/06 10:11:04;;;;;;;0.47;0.30;;;5.20;99.90;;;;;;6277507;22;20019;-91
2023/03/06 10:13:38;;;;;;;0.30;0.22;;;5.40;99.90;;;;;;6277096;22;20020;-91
2023/03/06 10:16:26;;;;;;;0.88;0.30;;;5.50;99.90;;;;;;6275718;22;20055;-91
2023/03/06 10:18:54;;;;;;;0.50;0.22;;;6.40;99.90;;;;;;6276126;22;20099;-91
2023/03/06 10:21:31;;;;;;;0.57;0.20;;;5.60;99.90;;;;;;6276160;22;20347;-93
2023/03/06 10:24:07;;;;;;;0.20;0.20;;;5.80;99.90;;;;;;6278080;22;20092;-92
2023/03/06 10:26:37;;;;;;;;;;;5.90;99.90;;;;;;6276683;22;20455;-92
2023/03/06 10:29:13;;;;;;;0.30;0.20;;;6.00;99.90;;;;;;6278121;22;19919;-93
2023/03/06 10:31:43;;;;;;;;;;;6.00;99.90;;;;;;6278375;22;20016;-89
2023/03/06 10:34:36;;;;;;;3.75;0.30;;;6.10;99.90;;;;;;6277954;22;19978;-91
2023/03/06 10:37:17;;;;;;;0.43;0.10;;;6.20;99.90;;;;;;6154018;23;20445;-91
2023/03/06 10:39:43;;;;;;;2.50;0.20;;;6.20;99.90;;;;;;6154092;23;20021;-93
2023/03/06 10:42:09;;;;;;;1.13;0.25;;;6.40;99.90;;;;;;6154160;23;20052;-92
2023/03/06 10:44:35;;;;;;;0.73;0.20;;;6.30;99.90;;;;;;6154152;23;20048;-94
2023/03/06 10:47:36;;;;;;;1.85;0.20;;;6.40;99.90;;;;;;6154070;23;20037;-92
2023/03/06 10:50:06;;;;;;;0.60;0.10;;;6.50;99.90;;;;;;6095290;23;20081;-92
2023/03/06 10:52:34;;;;;;;0.20;0.20;;;6.50;99.90;;;;;;6072155;23;20108;-92
2023/03/06 10:55:24;;;;;;;0.52;0.20;;;6.60;99.90;;;;;;6097356;23;20029;-92
2023/03/06 10:57:50;;;;;;;1.15;0.25;;;6.70;99.90;;;;;;6097770;23;20484;-92
2023/03/06 11:00:32;;;;;;;0.20;0.10;;;6.50;99.90;;;;;;6097748;23;20040;-91
2023/03/06 11:03:12;;;;;;;1.15;0.20;;;6.80;99.90;;;;;;6096782;23;20022;-93
2023/03/06 11:05:38;;;;;;;0.70;0.30;;;6.90;99.90;;;;;;6096260;23;20019;-92
2023/03/06 11:08:21;;;;;;;2.35;0.30;;;7.10;99.90;;;;;;6095777;23;20018;-92
2023/03/06 11:10:57;;;;;;;0.28;0.10;;;6.80;99.90;;;;;;6097756;23;20022;-88
2023/03/06 11:13:56;;;;;;;0.47;0.20;;;7.30;99.90;;;;;;6111141;23;20028;-90
2023/03/06 11:16:33;;;;;;;0.20;0.20;;;7.20;99.90;;;;;;6184437;23;20261;-85
2023/03/06 11:45:03;;;;;;;0.20;0.10;;;7.50;99.90;;;;;;6275792;22;20019;-92
2023/03/06 11:47:54;;;;;;;1.45;0.30;;;7.70;99.90;;;;;;6276326;22;20016;-91
2023/03/06 11:50:45;;;;;;;0.57;0.20;;;8.00;99.90;;;;;;6275576;22;20328;-90
2023/03/06 11:53:34;;;;;;;0.22;0.20;;;8.20;99.90;;;;;;6274062;22;20443;-88
2023/03/06 11:56:15;;;;;;;1.73;0.22;;;8.10;99.90;;;;;;6277192;22;20020;-90
2023/03/06 11:58:59;;;;;;;0.50;0.32;;;7.90;99.90;;;;;;6281196;22;20353;-90
2023/03/06 12:01:50;;;;;;;0.17;0.10;;;7.80;99.90;;;;;;6278707;22;20070;-92
2023/03/06 12:04:31;;;;;;;1.50;0.30;;;7.70;99.90;;;;;;6276757;22;20008;-91
2023/03/06 12:07:28;;;;;;;2.75;0.20;;;8.00;99.90;;;;;;6274321;22;20095;-91
2023/03/06 12:10:15;;;;;;;0.85;0.20;;;8.20;99.90;;;;;;6277840;22;20020;-90
2023/03/06 12:13:13;;;;;;;0.40;0.20;;;8.30;99.90;;;;;;6281820;22;20016;-93
2023/03/06 12:15:51;;;;;;;0.45;0.10;;;8.30;99.90;;;;;;6283402;22;20050;-92
2023/03/06 12:19:17;;;;;;;1.05;0.10;;;8.20;99.90;;;;;;6284552;22;20011;-90
2023/03/06 12:22:23;;;;;;;1.05;0.20;;;8.10;99.90;;;;;;6138224;23;20364;-91
2023/03/06 12:25:11;;;;;;;0.50;0.10;;;7.80;99.90;;;;;;6139995;23;20028;-92
2023/03/06 12:28:25;;;;;;;1.95;0.20;;;7.70;99.90;;;;;;6187651;23;20072;-88
2023/03/06 12:31:02;;;;;;;2.20;0.30;;;7.90;99.90;;;;;;6127968;23;20029;-84
2023/03/06 12:33:51;;;;;;;0.68;0.20;;;8.10;99.90;;;;;;6154173;23;20044;-84
2023/03/06 12:43:56;;;;;;;0.25;0.20;;;8.60;99.90;;;;;;6154982;23;20019;-85
2023/03/06 12:46:45;;;;;;;2.88;0.20;;;8.50;99.90;;;;;;6128512;23;20076;-88
2023/03/06 12:49:28;;;;;;;0.80;0.20;;;8.30;99.90;;;;;;6131642;23;20024;-91
2023/03/06 12:52:01;;;;;;;0.65;0.20;;;8.40;99.90;;;;;;6129435;23;20464;-90
2023/03/06 12:54:30;;;;;;;0.63;0.20;;;8.30;99.90;;;;;;6162352;22;20163;-84
2023/03/06 12:56:59;;;;;;;1.33;0.22;;;8.60;99.90;;;;;;6277542;22;20524;-88
2023/03/06 12:59:46;;;;;;;0.82;0.20;;;8.50;99.90;;;;;;6277396;22;20016;-86
2023/03/06 13:02:15;;;;;;;1.13;0.28;;;8.70;99.90;;;;;;6275408;22;20012;-84
2023/03/06 13:05:22;;;;;;;1.70;0.22;;;8.60;99.90;;;;;;6275924;22;20102;-84
2023/03/06 13:08:30;;;;;;;0.60;0.20;;;8.50;99.90;;;;;;6128628;23;20372;-91
2023/03/06 13:11:29;;;;;;;0.73;0.20;;;8.50;99.90;;;;;;6129539;23;20425;-89
2023/03/06 13:13:56;;;;;;;0.17;0.10;;;8.30;99.90;;;;;;6095222;23;20014;-91
2023/03/06 13:16:33;;;;;;;0.70;0.22;;;8.40;99.90;;;;;;6094550;23;20022;-92
2023/03/06 13:19:18;;;;;;;0.85;0.30;;;8.10;99.90;;;;;;6071092;23;20524;-85
2023/03/06 13:21:56;;;;;;;1.50;0.30;;;7.70;99.90;;;;;;6095220;23;20054;-91
2023/03/06 13:24:30;;;;;;;0.28;0.20;;;8.00;99.90;;;;;;6094556;23;20022;-90
2023/03/06 13:26:57;;;;;;;2.05;0.20;;;7.90;99.90;;;;;;6095089;23;20051;-91
2023/03/06 13:29:35;;;;;;;1.73;0.30;;;7.80;99.90;;;;;;6095132;23;20019;-89
2023/03/06 13:32:14;;;;;;;2.08;0.20;;;7.60;99.90;;;;;;6094907;23;20037;-92
2023/03/06 13:34:48;;;;;;;1.55;0.20;;;7.80;99.90;;;;;;6095017;23;20081;-92
2023/03/06 13:37:18;;;;;;;0.88;0.32;;;7.70;99.90;;;;;;6094123;23;20038;-85
2023/03/06 13:39:59;;;;;;;1.30;0.20;;;7.70;99.90;;;;;;6094966;23;20026;-91
2023/03/06 13:42:54;;;;;;;0.47;0.20;;;7.50;99.90;;;;;;6071020;23;20029;-90
2023/03/06 13:45:34;;;;;;;2.53;0.40;;;7.40;99.90;;;;;;6187504;23;20052;-87
2023/03/06 13:48:34;;;;;;;0.93;0.20;;;7.80;99.90;;;;;;6215116;23;20012;-88
2023/03/06 13:51:33;;;;;;;0.30;0.20;;;7.60;99.90;;;;;;6254497;22;20023;-89
2023/03/06 13:54:33;;;;;;;1.17;0.20;;;7.40;99.90;;;;;;6276525;22;20047;-85
2023/03/06 13:57:26;;;;;;;0.75;0.30;;;7.60;99.90;;;;;;6277191;22;20050;-88
2023/03/06 14:00:20;;;;;;;0.85;0.35;;;7.60;99.90;;;;;;6274576;22;20015;-89
2023/03/06 14:02:56;;;;;;;0.65;0.35;;;8.00;99.90;;;;;;6249970;22;20019;-91
2023/03/06 14:06:01;;;;;;;6.28;0.40;;;8.40;99.90;;;;;;6250079;22;20103;-90
2023/03/06 14:08:32;;;;;;;0.50;0.30;;;7.50;99.90;;;;;;6128650;23;20117;-91
2023/03/06 14:11:07;;;;;;;2.67;0.50;;;7.40;99.90;;;;;;6153731;23;20025;-91
2023/03/06 14:13:38;;;;;;;0.77;0.20;;;7.40;99.90;;;;;;6153432;23;20092;-86
2023/03/06 14:16:31;;;;;;;1.60;0.28;;;7.40;99.90;;;;;;6103505;23;20060;-85
2023/03/06 14:18:59;;;;;;;0.40;0.10;;;7.40;99.90;;;;;;6153624;23;20069;-90
2023/03/06 14:21:44;;;;;;;1.55;0.40;;;7.30;99.90;;;;;;6103119;23;20018;-86
2023/03/06 14:24:18;;;;;;;0.17;0.10;;;7.20;99.90;;;;;;6154075;23;20096;-91
2023/03/06 14:26:50;;;;;;;0.55;0.20;;;7.20;99.90;;;;;;6129652;23;20056;-85
2023/03/06 14:29:23;;;;;;;3.05;1.60;;;6.50;99.90;;;;;;6153151;23;20014;-86
2023/03/06 14:31:54;;;;;;;0.22;0.10;;;7.20;99.90;;;;;;6153174;23;20017;-86
2023/03/06 14:34:21;;;;;;;0.20;0.20;;;7.20;99.90;;;;;;6153646;23;20076;-88